createdAt,value
2022-09-14T00:02:52.468Z,52.32
2022-09-14T00:07:55.460Z,52.27
2022-09-14T00:13:00.509Z,52.28
2022-09-14T00:18:03.264Z,52.42
2022-09-14T00:23:05.993Z,52.39
2022-09-14T00:28:10.125Z,52.61
2022-09-14T00:33:13.407Z,52.49
2022-09-14T00:38:16.172Z,52.59
2022-09-14T00:43:20.272Z,52.71
2022-09-14T00:48:24.589Z,52.75
2022-09-14T00:53:27.362Z,52.71
2022-09-14T00:58:31.421Z,52.75
2022-09-14T01:03:34.208Z,52.78
2022-09-14T01:08:47.080Z,52.59
2022-09-14T01:13:56.072Z,52.71
2022-09-14T01:19:00.142Z,52.76
2022-09-14T01:24:06.069Z,52.77
2022-09-14T01:29:13.417Z,52.73
2022-09-14T01:34:17.913Z,52.85
2022-09-14T01:39:20.771Z,52.75
2022-09-14T01:44:26.592Z,52.84
2022-09-14T01:49:32.228Z,52.74
2022-09-14T01:54:36.141Z,52.77
2022-09-14T01:59:42.499Z,52.94
2022-09-14T02:04:47.722Z,52.79
2022-09-14T02:09:50.555Z,52.92
2022-09-14T02:14:54.822Z,53.05
2022-09-14T02:19:58.109Z,53.02
2022-09-14T02:25:00.876Z,53.04
2022-09-14T02:30:05.682Z,52.94
2022-09-14T02:35:11.825Z,53.06
2022-09-14T02:40:19.212Z,52.93
2022-09-14T02:45:26.818Z,52.95
2022-09-14T02:50:31.206Z,52.83
2022-09-14T02:55:35.989Z,52.91
2022-09-14T03:00:41.899Z,52.92
2022-09-14T03:05:44.823Z,52.77
2022-09-14T03:10:47.745Z,52.94
2022-09-14T03:15:52.074Z,53.01
2022-09-14T03:20:54.873Z,52.95
2022-09-14T03:25:57.631Z,52.99
2022-09-14T03:31:03.098Z,52.90
2022-09-14T03:36:11.257Z,53.12
2022-09-14T03:41:14.454Z,53.02
2022-09-14T03:46:20.609Z,52.84
2022-09-14T03:51:23.539Z,52.83
2022-09-14T03:56:26.308Z,52.72
2022-09-14T04:01:30.390Z,52.59
2022-09-14T04:06:33.600Z,52.51
2022-09-14T04:11:36.299Z,52.56
2022-09-14T04:16:40.324Z,52.62
2022-09-14T04:21:42.991Z,52.51
2022-09-14T04:26:45.752Z,52.50
2022-09-14T04:31:49.849Z,52.58
2022-09-14T04:36:52.527Z,52.49
2022-09-14T04:41:55.320Z,52.51
2022-09-14T04:46:59.551Z,52.67
2022-09-14T04:52:02.607Z,52.49
2022-09-14T04:57:05.603Z,52.55
2022-09-14T05:02:09.647Z,52.49
2022-09-14T05:07:12.354Z,52.46
2022-09-14T05:12:15.062Z,52.36
2022-09-14T05:17:19.090Z,52.39
2022-09-14T05:22:22.693Z,52.18
2022-09-14T05:27:25.347Z,52.33
2022-09-14T05:32:29.314Z,52.15
2022-09-14T05:37:32.052Z,52.30
2022-09-14T05:42:34.670Z,52.23
2022-09-14T05:47:39.349Z,52.15
2022-09-14T05:52:42.139Z,52.27
2022-09-14T05:57:44.825Z,52.19
2022-09-14T06:02:49.242Z,52.10
2022-09-14T06:07:52.363Z,52.07
2022-09-14T06:12:55.632Z,52.04
2022-09-14T06:17:59.737Z,51.90
2022-09-14T06:23:02.368Z,52.02
2022-09-14T06:28:05.099Z,51.74
2022-09-14T06:33:09.030Z,51.84
2022-09-14T06:38:11.739Z,51.69
2022-09-14T06:43:14.379Z,51.59
2022-09-14T06:48:18.397Z,51.74
2022-09-14T06:53:21.102Z,51.68
2022-09-14T06:58:23.724Z,51.82
2022-09-14T07:03:27.856Z,51.68
2022-09-14T07:08:30.568Z,51.78
2022-09-14T07:13:33.394Z,51.85
2022-09-14T07:18:37.481Z,51.70
2022-09-14T07:23:41.130Z,51.75
2022-09-14T07:28:44.278Z,51.91
2022-09-14T07:33:48.494Z,51.96
2022-09-14T07:39:01.290Z,51.86
2022-09-14T07:44:05.378Z,51.90
2022-09-14T07:49:09.639Z,52.00
2022-09-14T07:54:13.548Z,51.95
2022-09-14T07:59:35.925Z,51.92
2022-09-14T08:04:40.392Z,52.10
2022-09-14T08:09:43.097Z,52.03
2022-09-14T08:14:45.746Z,52.12
2022-09-14T08:19:49.715Z,52.07
2022-09-14T08:24:52.468Z,52.13
2022-09-14T08:29:55.382Z,52.09
2022-09-14T08:34:59.434Z,51.84
2022-09-14T08:40:02.478Z,50.79
2022-09-14T08:45:09.585Z,50.34
2022-09-14T08:50:17.179Z,50.35
2022-09-14T08:55:25.530Z,50.64
2022-09-14T09:05:37.725Z,51.09
2022-09-14T09:10:40.377Z,51.12
2022-09-14T09:15:46.112Z,51.43
2022-09-14T09:20:52.331Z,51.26
2022-09-14T09:25:58.829Z,51.98
2022-09-14T09:31:04.774Z,50.80
2022-09-14T09:36:28.765Z,50.95
2022-09-14T09:41:32.518Z,51.14
2022-09-14T09:46:35.803Z,50.71
2022-09-14T09:51:39.937Z,49.99
2022-09-14T09:56:51.909Z,49.93
2022-09-14T10:01:56.337Z,50.49
2022-09-14T10:07:00.572Z,49.83
2022-09-14T10:12:04.069Z,50.53
2022-09-14T10:17:08.133Z,50.35
2022-09-14T10:22:24.300Z,49.87
2022-09-14T10:27:50.532Z,50.11
2022-09-14T10:32:56.594Z,50.64
2022-09-14T10:38:17.328Z,51.21
2022-09-14T10:43:23.171Z,51.53
2022-09-14T10:48:44.619Z,51.73
2022-09-14T10:53:52.829Z,52.20
2022-09-14T10:59:07.187Z,53.19
2022-09-14T11:04:20.023Z,53.92
2022-09-14T11:09:25.599Z,53.16
2022-09-14T11:14:38.662Z,53.10
2022-09-14T11:19:45.275Z,53.12
2022-09-14T11:24:51.204Z,52.91
2022-09-14T11:29:54.904Z,52.74
2022-09-14T11:35:00.091Z,52.38
2022-09-14T11:40:19.300Z,52.25
2022-09-14T11:45:24.829Z,52.36
2022-09-14T11:50:28.597Z,52.25
2022-09-14T11:55:32.586Z,52.08
2022-09-14T12:00:47.246Z,52.05
2022-09-14T12:05:50.172Z,52.12
2022-09-14T12:11:22.198Z,51.93
2022-09-14T12:16:24.997Z,51.91
2022-09-14T12:21:27.723Z,51.76
2022-09-14T12:26:35.044Z,51.61
2022-09-14T12:32:02.216Z,51.53
2022-09-14T12:37:29.554Z,51.48
2022-09-14T12:42:33.621Z,51.48
2022-09-14T12:47:54.627Z,51.50
2022-09-14T12:53:06.923Z,51.50
2022-09-14T12:58:18.550Z,51.91
2022-09-14T13:03:28.747Z,51.61
2022-09-14T13:08:31.491Z,51.51
2022-09-14T13:13:35.751Z,51.76
2022-09-14T13:18:38.901Z,52.49
2022-09-14T13:23:42.738Z,52.65
2022-09-14T13:28:47.613Z,52.74
2022-09-14T13:33:51.284Z,52.96
2022-09-14T13:38:54.224Z,53.00
2022-09-14T13:43:58.630Z,53.22
2022-09-14T13:49:01.316Z,53.37
2022-09-14T13:54:17.752Z,53.35
2022-09-14T13:59:22.511Z,53.43
2022-09-14T14:04:30.724Z,53.60
2022-09-14T14:09:45.086Z,53.51
2022-09-14T14:14:57.953Z,53.59
2022-09-14T14:20:01.427Z,53.88
2022-09-14T14:25:18.873Z,53.71
2022-09-14T14:30:23.236Z,53.79
2022-09-14T14:35:27.081Z,53.87
2022-09-14T14:40:30.142Z,53.90
2022-09-14T14:45:36.548Z,53.94
2022-09-14T14:50:39.537Z,54.02
2022-09-14T14:55:42.241Z,54.29
2022-09-14T15:00:47.607Z,54.41
2022-09-14T15:05:50.508Z,54.26
2022-09-14T15:10:56.703Z,54.15
2022-09-14T15:16:00.729Z,54.40
2022-09-14T15:21:03.432Z,54.34
2022-09-14T15:26:06.087Z,54.33
2022-09-14T15:31:10.087Z,54.38
2022-09-14T15:36:12.855Z,54.50
2022-09-14T15:41:15.636Z,54.44
2022-09-14T15:46:19.617Z,54.26
2022-09-14T15:51:22.310Z,54.24
2022-09-14T15:56:25.006Z,54.59
2022-09-14T16:01:29.169Z,54.56
2022-09-14T16:06:31.963Z,54.84
2022-09-14T16:11:34.752Z,55.03
2022-09-14T16:16:39.512Z,54.75
2022-09-14T16:21:42.783Z,54.71
2022-09-14T16:26:45.641Z,54.59
2022-09-14T16:31:49.929Z,54.59
2022-09-14T16:36:52.866Z,54.67
2022-09-14T16:41:55.797Z,54.63
2022-09-14T16:46:59.977Z,54.88
2022-09-14T16:52:03.182Z,54.84
2022-09-14T16:57:05.928Z,54.70
2022-09-14T17:02:11.299Z,54.37
2022-09-14T17:07:13.930Z,54.25
2022-09-14T17:12:16.635Z,54.22
2022-09-14T17:17:20.902Z,53.84
2022-09-14T17:22:23.577Z,53.68
2022-09-14T17:27:26.327Z,53.73
2022-09-14T17:32:30.405Z,53.59
2022-09-14T17:37:33.198Z,53.45
2022-09-14T17:42:36.119Z,53.25
2022-09-14T17:47:40.173Z,53.13
2022-09-14T17:52:43.116Z,53.10
2022-09-14T17:57:46.050Z,52.99
2022-09-14T18:02:52.644Z,52.96
2022-09-14T18:07:55.672Z,52.96
2022-09-14T18:12:58.811Z,52.81
2022-09-14T18:18:03.186Z,52.77
2022-09-14T18:23:05.799Z,52.83
2022-09-14T18:28:08.430Z,52.92
2022-09-14T18:33:12.437Z,52.78
2022-09-14T18:38:15.219Z,52.68
2022-09-14T18:43:17.947Z,52.65
2022-09-14T18:48:21.931Z,52.58
2022-09-14T18:53:24.701Z,52.55
2022-09-14T18:58:27.709Z,52.39
2022-09-14T19:03:31.970Z,52.17
2022-09-14T19:08:34.776Z,52.27
2022-09-14T19:13:37.412Z,51.86
2022-09-14T19:18:41.697Z,51.97
2022-09-14T19:23:44.443Z,51.91
2022-09-14T19:28:47.243Z,51.90
2022-09-14T19:33:51.818Z,51.56
2022-09-14T19:38:55.204Z,51.77
2022-09-14T19:43:57.978Z,51.59
2022-09-14T19:49:02.339Z,51.66
2022-09-14T19:54:05.296Z,51.69
2022-09-14T19:59:08.313Z,51.39
2022-09-14T20:04:12.442Z,51.27
2022-09-14T20:09:16.486Z,51.12
2022-09-14T20:14:21.395Z,51.30
2022-09-14T20:19:26.769Z,51.22
2022-09-14T20:24:31.586Z,51.10
2022-09-14T20:29:35.329Z,51.22
2022-09-14T20:34:39.465Z,51.30
2022-09-14T20:39:42.195Z,51.36
2022-09-14T20:44:45.074Z,51.41
2022-09-14T20:49:49.621Z,51.41
2022-09-14T20:54:52.417Z,51.63
2022-09-14T20:59:55.160Z,51.91
2022-09-14T21:04:59.967Z,51.90
2022-09-14T21:10:02.692Z,52.10
2022-09-14T21:15:06.007Z,52.21
2022-09-14T21:20:10.439Z,52.47
2022-09-14T21:25:13.289Z,52.21
2022-09-14T21:30:16.147Z,52.47
2022-09-14T21:35:20.267Z,52.64
2022-09-14T21:40:23.409Z,52.52
2022-09-14T21:45:26.307Z,52.67
2022-09-14T21:50:30.306Z,52.73
2022-09-14T21:55:33.019Z,52.86
2022-09-14T22:00:35.903Z,52.81
2022-09-14T22:05:40.089Z,52.93
2022-09-14T22:10:42.760Z,52.82
2022-09-14T22:15:45.442Z,52.90
2022-09-14T22:20:57.653Z,53.04
2022-09-14T22:26:00.881Z,53.22
2022-09-14T22:31:03.580Z,53.10
2022-09-14T22:36:08.211Z,53.24
2022-09-14T22:41:11.607Z,53.37
2022-09-14T22:46:14.586Z,53.56
2022-09-14T22:51:19.497Z,53.55
2022-09-14T22:56:23.749Z,53.47
2022-09-14T23:01:27.604Z,53.54
2022-09-14T23:06:32.731Z,53.31
2022-09-14T23:11:35.424Z,53.47
2022-09-14T23:16:38.181Z,53.46
2022-09-14T23:21:42.243Z,53.40
2022-09-14T23:26:44.944Z,53.50
2022-09-14T23:31:47.617Z,53.40
2022-09-14T23:36:51.680Z,53.53
2022-09-14T23:41:54.337Z,53.36
2022-09-14T23:46:57.117Z,53.32
2022-09-14T23:52:01.322Z,53.43
2022-09-14T23:57:04.206Z,53.58
